• Join FlightAware (Why Join?)
  • Login
  • US Flag 
07:54AM EDT


 

Airport Tracker/Info


-or-


 

Live Flight TrackerFlight Track Log ✈ SWA902 ✈ 28-Sep-2013 ✈ KABQ - KMDW

Flight Track Log - Related Links

Times and Time Zones

All times are in EDT time to prevent confusion due to time zone crossing. See the SWA902 flight status page for this flight to view local times or setup timezone preferences in your user account.

Time Position Orientation Groundspeed Altitude Reporting Facility
EDT Latitude Longitude Course Direction KTS MPH feet Rate Location/Type
05:04PM 35.0450 -106.5580 88° East 191 220 6,500  Level FlightAware
05:05PM 35.0570 -106.5180 70° East 222 255 7,600 1,980 Climbing FlightAware
05:05PM 35.0650 -106.5140 22° Northeast 220 253 8,000 3,360 Climbing FlightAware
05:05PM 35.0730 -106.5130 North 220 253 8,500 2,880 Climbing FlightAware
05:05PM 35.0930 -106.5210 342° North 235 270 9,400 2,880 Climbing FlightAware
05:06PM 35.1240 -106.5430 330° Northwest 242 278 11,000 2,640 Climbing FlightAware
05:06PM 35.1570 -106.5680 328° Northwest 275 316 12,200 2,460 Climbing FlightAware
05:07PM 35.1870 -106.5870 333° Northwest 291 335 13,400 2,640 Climbing FlightAware
05:07PM 35.1970 -106.5900 346° North 298 343 13,700 2,460 Climbing FlightAware
05:07PM 35.2320 -106.5760 18° North 326 375 14,800 2,700 Climbing FlightAware
05:08PM 35.2470 -106.5520 53° Northeast 338 389 15,600 2,760 Climbing FlightAware
05:08PM 35.2650 -106.4930 69° East 357 411 17,100 2,520 Climbing FlightAware
05:09PM 35.2850 -106.4230 71° East 381 438 18,500 2,520 Climbing FlightAware
05:09PM 35.3080 -106.3470 70° East 399 459 20,100 2,580 Climbing FlightAware
05:10PM 35.3370 -106.2750 64° Northeast 413 475 21,600 2,400 Climbing FlightAware
05:10PM 35.3590 -106.2240 62° Northeast 425 489 22,500 2,460 Climbing FlightAware
05:11PM 35.4030 -106.1230 62° Northeast 438 504 24,500 2,460 Climbing FlightAware
05:12PM 35.4360 -106.0460 62° Northeast 447 514 25,900 2,160 Climbing FlightAware
05:12PM 35.4720 -105.9610 63° Northeast 461 531 27,100 960 Climbing FlightAware
05:13PM 35.5060 -105.8850 61° Northeast 461 531 27,100  Level FlightAware
05:14PM 35.5370 -105.8120 62° Northeast 461 531 27,100  Level FlightAware
05:14PM 35.5680 -105.7410 62° Northeast 461 531 27,100  Level FlightAware
05:15PM 35.5980 -105.6700 63° Northeast 461 531 27,100  Level FlightAware
05:15PM 35.6290 -105.5990 62° Northeast 461 531 27,100  Level FlightAware
05:16PM 35.6600 -105.5280 62° Northeast 461 531 27,100 4,320 Level FlightAware
05:17PM 35.7606 -105.2853 62° Northeast 516 594 33,900 4,380 Climbing Albuquerque Center
05:18PM 35.8269 -105.1264 63° Northeast 517 595 35,900 1,680 Climbing Albuquerque Center
05:19PM 35.8931 -104.9700 62° Northeast 512 589 37,400 1,260 Climbing Albuquerque Center
05:20PM 35.9583 -104.8125 63° Northeast 509 586 38,500 780 Climbing Albuquerque Center
05:21PM 36.0233 -104.6525 63° Northeast 512 589 39,000 240 Climbing Albuquerque Center
05:22PM 36.0900 -104.4903 63° Northeast 519 597 39,000  Level Albuquerque Center
05:23PM 36.1572 -104.3289 63° Northeast 521 600 39,000  Level Albuquerque Center
05:24PM 36.2233 -104.1664 63° Northeast 523 602 39,000  Level Albuquerque Center
05:25PM 36.2897 -104.0044 63° Northeast 521 600 39,000  Level Albuquerque Center
05:26PM 36.3678 -103.8144 63° Northeast 524 603 39,000  Level Albuquerque Center
05:27PM 36.4333 -103.6500 64° Northeast 524 603 39,000  Level Albuquerque Center
05:28PM 36.4992 -103.4867 63° Northeast 524 603 39,000  Level Albuquerque Center
05:29PM 36.5642 -103.3211 64° Northeast 527 606 39,000  Level Albuquerque Center
05:30PM 36.6303 -103.1550 64° Northeast 529 609 39,000  Level Albuquerque Center
05:31PM 36.6925 -102.9942 64° Northeast 527 606 39,000  Level Albuquerque Center
05:32PM 36.7644 -102.8117 64° Northeast 526 605 39,000  Level Albuquerque Center
05:33PM 36.8256 -102.6547 64° Northeast 525 604 39,000  Level Albuquerque Center
05:34PM 36.8908 -102.4853 64° Northeast 528 608 39,000  Level Albuquerque Center
05:35PM 36.9536 -102.3269 64° Northeast 529 609 39,000  Level Albuquerque Center
05:37PM 37.0244 -102.1414 64° Northeast 529 609 39,000  Level Albuquerque Center
05:37PM 37.0533 -102.0606 66° East 529 609 39,000  Level Kansas City Center
05:38PM 37.1231 -101.8742 65° Northeast 530 610 39,000  Level Kansas City Center
05:39PM 37.1833 -101.7156 64° Northeast 528 608 39,000  Level Kansas City Center
05:40PM 37.2433 -101.5556 65° Northeast 529 609 39,000  Level Kansas City Center
05:41PM 37.3133 -101.3694 65° Northeast 530 610 39,000  Level Kansas City Center
05:42PM 37.3733 -101.2086 65° Northeast 531 611 39,000  Level Kansas City Center
05:43PM 37.4408 -101.0217 65° Northeast 531 611 39,000  Level Kansas City Center
05:44PM 37.4994 -100.8600 65° Northeast 535 616 39,000  Level Kansas City Center
05:45PM 37.5589 -100.7017 65° Northeast 537 618 39,000  Level Kansas City Center
05:46PM 37.6339 -100.4961 65° Northeast 536 617 39,000  Level Kansas City Center
05:47PM 37.6972 -100.3225 65° Northeast 536 617 39,000  Level Kansas City Center
05:48PM 37.7556 -100.1583 66° East 537 618 39,000  Level Kansas City Center
05:54PM 38.1210 -99.1200 66° East 541 623 39,000  Level FlightAware
05:55PM 38.1640 -98.9970 66° East 541 623 39,000  Level FlightAware
05:55PM 38.1940 -98.9070 67° East 543 625 39,000  Level FlightAware
05:56PM 38.2330 -98.7960 66° East 544 626 39,000  Level FlightAware
05:57PM 38.2690 -98.6910 66° East 545 627 39,000  Level FlightAware
05:57PM 38.3050 -98.5850 67° East 545 627 39,000  Level FlightAware
05:58PM 38.3360 -98.4910 67° East 546 628 39,000  Level FlightAware
05:58PM 38.3710 -98.3880 67° East 547 629 39,000  Level FlightAware
05:59PM 38.4160 -98.2550 67° East 548 631 39,000  Level FlightAware
06:00PM 38.4480 -98.1580 67° East 547 629 39,000  Level FlightAware
06:00PM 38.4830 -98.0540 67° East 546 628 39,000  Level FlightAware
06:01PM 38.5190 -97.9470 67° East 545 627 39,000  Level FlightAware
06:01PM 38.5500 -97.8520 67° East 544 626 39,000 420 Level FlightAware
06:02PM 38.5850 -97.7470 67° East 541 623 39,500 1,020 Climbing FlightAware
06:03PM 38.6190 -97.6440 67° East 540 621 40,200 1,020 Climbing FlightAware
06:03PM 38.6520 -97.5440 67° East 539 620 40,700 660 Climbing FlightAware
06:04PM 38.6860 -97.4380 68° East 537 618 41,000 240 Climbing FlightAware
06:04PM 38.7210 -97.3320 67° East 538 619 41,000  Level FlightAware
06:05PM 38.7540 -97.2310 67° East 538 619 41,000  Level FlightAware
06:06PM 38.7880 -97.1240 68° East 539 620 41,000  Level FlightAware
06:06PM 38.8180 -97.0320 67° East 539 620 41,000  Level FlightAware
06:07PM 38.8560 -96.9130 68° East 539 620 41,000  Level FlightAware
06:07PM 38.8850 -96.8230 67° East 538 619 41,000  Level FlightAware
06:08PM 38.9190 -96.7150 68° East 538 619 41,000  Level FlightAware
06:08PM 38.9530 -96.6080 68° East 538 619 41,000  Level FlightAware
06:09PM 38.9840 -96.5110 68° East 538 619 41,000  Level FlightAware
06:10PM 39.0170 -96.4050 68° East 538 619 41,000  Level FlightAware
06:10PM 39.0500 -96.2990 68° East 537 618 41,000  Level FlightAware
06:11PM 39.0890 -96.1750 68° East 537 618 41,000  Level FlightAware
06:11PM 39.1220 -96.0700 68° East 536 617 41,000  Level FlightAware
06:12PM 39.1500 -95.9800 68° East 534 615 41,000  Level FlightAware
06:13PM 39.1820 -95.8760 68° East 534 615 41,000  Level FlightAware
06:13PM 39.2150 -95.7670 69° East 532 612 41,000  Level FlightAware
06:14PM 39.2490 -95.6580 68° East 532 612 41,000  Level FlightAware
06:14PM 39.2800 -95.5550 69° East 531 611 41,000  Level FlightAware
06:15PM 39.3090 -95.4600 68° East 530 610 41,000  Level FlightAware
06:16PM 39.3410 -95.3540 69° East 529 609 41,000  Level FlightAware
06:16PM 39.3740 -95.2470 68° East 529 609 41,000  Level FlightAware
06:17PM 39.4040 -95.1450 69° East 529 609 41,000  Level FlightAware
06:17PM 39.4330 -95.0480 69° East 529 609 41,000  Level FlightAware
06:18PM 39.4650 -94.9410 69° East 529 609 41,000  Level FlightAware
06:18PM 39.4970 -94.8360 68° East 530 610 41,000  Level FlightAware
06:19PM 39.5260 -94.7360 69° East 531 611 41,000  Level FlightAware
06:20PM 39.5570 -94.6330 69° East 531 611 41,000  Level FlightAware
06:20PM 39.5850 -94.5370 69° East 531 611 41,000  Level FlightAware
06:21PM 39.6170 -94.4270 69° East 532 612 41,000  Level FlightAware
06:21PM 39.6490 -94.3150 70° East 532 612 41,000  Level FlightAware
06:22PM 39.6800 -94.2110 69° East 532 612 41,000  Level FlightAware
06:23PM 39.7110 -94.1050 69° East 532 612 41,000  Level FlightAware
06:23PM 39.7400 -94.0050 69° East 533 613 41,000  Level FlightAware
06:24PM 39.7710 -93.8960 70° East 532 612 41,000  Level FlightAware
06:24PM 39.8010 -93.7900 70° East 530 610 41,000  Level FlightAware
06:25PM 39.8310 -93.6840 70° East 529 609 41,000  Level FlightAware
06:25PM 39.8590 -93.5850 70° East 528 608 41,000  Level FlightAware
06:26PM 39.8880 -93.4830 70° East 527 606 41,000  Level FlightAware
06:27PM 39.9160 -93.3850 70° East 527 606 41,000  Level FlightAware
06:27PM 39.9470 -93.2710 70° East 525 604 41,000  Level FlightAware
06:28PM 39.9770 -93.1660 70° East 525 604 41,000  Level FlightAware
06:28PM 40.0070 -93.0570 70° East 524 603 41,000  Level FlightAware
06:29PM 40.0330 -92.9610 70° East 523 602 41,000  Level FlightAware
06:30PM 40.0640 -92.8530 69° East 522 601 41,000  Level FlightAware
06:30PM 40.0920 -92.7510 70° East 522 601 41,000  Level FlightAware
06:31PM 40.1160 -92.6610 71° East 523 602 41,000  Level FlightAware
06:31PM 40.1430 -92.5520 72° East 522 601 41,000  Level FlightAware
06:32PM 40.1670 -92.4370 75° East 522 601 41,000  Level FlightAware
06:32PM 40.1890 -92.3330 74° East 522 601 41,000 -180 Level FlightAware
06:33PM 40.2120 -92.2210 75° East 520 598 40,800 -660 Descending FlightAware
06:34PM 40.2310 -92.1270 75° East 520 598 40,300 -1,440 Descending FlightAware
06:34PM 40.2540 -92.0120 75° East 522 601 39,200 -1,800 Descending FlightAware
06:35PM 40.2750 -91.9110 75° East 527 606 38,200 -1,860 Descending FlightAware
06:35PM 40.2950 -91.8120 75° East 532 612 37,200 -1,860 Descending FlightAware
06:36PM 40.3170 -91.6990 76° East 528 608 36,200 -1,680 Descending FlightAware
06:37PM 40.3410 -91.5810 75° East 522 601 35,100 -1,680 Descending FlightAware
06:37PM 40.3600 -91.4800 76° East 523 602 34,200 -1,680 Descending FlightAware
06:38PM 40.3820 -91.3680 76° East 523 602 33,200 -1,500 Descending FlightAware
06:39PM 40.4090 -91.2310 75° East 525 604 32,000 -1,620 Descending FlightAware
06:39PM 40.4320 -91.1140 75° East 523 602 31,000 -900 Descending FlightAware
06:40PM 40.4540 -91.0000 76° East 519 597 31,000  Level FlightAware
06:40PM 40.4740 -90.8950 76° East 518 596 31,000  Level FlightAware
06:41PM 40.4960 -90.7800 76° East 519 597 31,000  Level FlightAware
06:42PM 40.5160 -90.6750 76° East 518 596 31,000  Level FlightAware
06:42PM 40.5350 -90.5750 76° East 519 597 31,000  Level FlightAware
06:43PM 40.5560 -90.4650 76° East 516 594 31,000  Level FlightAware
06:43PM 40.5740 -90.3710 76° East 515 593 31,000  Level FlightAware
06:44PM 40.5940 -90.2590 77° East 515 593 31,000 -420 Level FlightAware
06:44PM 40.6140 -90.1500 76° East 501 577 30,500 -2,340 Descending FlightAware
06:45PM 40.6330 -90.0500 76° East 505 581 28,300 -3,480 Descending FlightAware
06:46PM 40.6520 -89.9470 76° East 500 575 26,500 -2,820 Descending FlightAware
06:46PM 40.6710 -89.8440 76° East 490 564 25,000 -2,460 Descending FlightAware
06:47PM 40.6930 -89.7660 70° East 478 550 24,000 -960 Descending FlightAware
06:47PM 40.7340 -89.6800 58° Northeast 474 545 24,000 -780 Level FlightAware
06:48PM 40.7840 -89.5960 52° Northeast 449 517 23,100 -1,800 Descending FlightAware
06:48PM 40.8220 -89.5320 52° Northeast 440 506 22,000 -3,000 Descending FlightAware
06:49PM 40.8710 -89.4510 51° Northeast 446 513 19,700 -4,080 Descending FlightAware
06:50PM 40.9140 -89.3770 52° Northeast 448 516 17,100 -3,120 Descending FlightAware
06:50PM 40.9630 -89.2970 51° Northeast 435 501 16,000 -960 Descending FlightAware
06:51PM 41.0030 -89.2330 50° Northeast 417 480 16,000  Level FlightAware
06:51PM 41.0440 -89.1660 51° Northeast 408 470 16,000 -720 Level FlightAware
06:52PM 41.0870 -89.0950 51° Northeast 396 456 15,200 -1,680 Descending FlightAware
06:52PM 41.1270 -89.0260 52° Northeast 391 450 14,000 -2,100 Descending FlightAware
06:53PM 41.1610 -88.9690 52° Northeast 387 445 12,900 -2,160 Descending FlightAware
06:54PM 41.2020 -88.9000 52° Northeast 378 435 11,600 -1,980 Descending FlightAware
06:54PM 41.2410 -88.8350 51° Northeast 373 429 10,500 -1,260 Descending FlightAware
06:55PM 41.2730 -88.7810 52° Northeast 348 400 10,200 -720 Descending FlightAware
06:55PM 41.2950 -88.7440 52° Northeast 330 380 9,900 -1,080 Descending FlightAware
06:56PM 41.3180 -88.7060 51° Northeast 327 376 9,400 -1,260 Descending FlightAware
06:56PM 41.3350 -88.6770 52° Northeast 330 380 9,000 -1,200 Descending FlightAware
06:56PM 41.3560 -88.6430 51° Northeast 329 379 8,600 -1,200 Descending FlightAware
06:57PM 41.3750 -88.6100 52° Northeast 326 375 8,200 -1,320 Descending FlightAware
06:57PM 41.3810 -88.5960 60° Northeast 324 373 8,000 -1,500 Descending FlightAware
06:57PM 41.3850 -88.5820 69° East 321 369 7,800 -1,320 Descending FlightAware
06:57PM 41.3920 -88.5430 77° East 316 364 7,400 -1,200 Descending FlightAware
06:57PM 41.3990 -88.5040 77° East 309 356 7,000 -1,380 Descending FlightAware
06:58PM 41.4050 -88.4700 77° East 307 353 6,500 -1,440 Descending FlightAware
06:58PM 41.4130 -88.4260 76° East 302 348 6,000 -720 Descending FlightAware
06:59PM 41.4200 -88.3910 75° East 296 341 6,000  Level FlightAware
06:59PM 41.4260 -88.3600 76° East 293 337 6,000  Level FlightAware
06:59PM 41.4340 -88.3210 75° East 297 342 6,000  Level FlightAware
07:00PM 41.4420 -88.2770 76° East 295 339 6,000  Level FlightAware
07:00PM 41.4490 -88.2430 75° East 296 341 6,000  Level FlightAware
07:00PM 41.4560 -88.2070 75° East 293 337 6,000  Level FlightAware
07:01PM 41.4620 -88.1720 77° East 292 336 6,000 -300 Level FlightAware
07:01PM 41.4710 -88.1310 74° East 295 339 5,800 -840 Descending FlightAware
07:01PM 41.4780 -88.0950 75° East 294 338 5,400 -1,200 Descending FlightAware
07:02PM 41.4860 -88.0620 72° East 291 335 5,000 -660 Descending FlightAware
07:02PM 41.4940 -88.0260 73° East 285 328 5,000  Level FlightAware
07:02PM 41.5020 -87.9910 73° East 287 330 5,000  Level FlightAware
07:03PM 41.5120 -87.9490 72° East 289 333 5,000  Level FlightAware
07:03PM 41.5170 -87.9290 72° East 291 335 5,000  Level FlightAware
07:03PM 41.5250 -87.8940 73° East 290 334 5,000  Level FlightAware
07:04PM 41.5330 -87.8590 73° East 288 331 5,000  Level FlightAware
07:04PM 41.5410 -87.8230 73° East 289 333 5,000  Level FlightAware
07:04PM 41.5490 -87.7900 72° East 275 316 5,000  Level FlightAware
07:05PM 41.5560 -87.7620 72° East 260 299 5,000  Level FlightAware
07:05PM 41.5630 -87.7330 72° East 237 273 5,000  Level FlightAware
07:05PM 41.5690 -87.7070 73° East 218 251 5,000  Level FlightAware
07:06PM 41.5740 -87.6860 72° East 209 241 5,000  Level FlightAware
07:06PM 41.5810 -87.6620 69° East 205 236 5,000  Level FlightAware
07:06PM 41.5830 -87.6460 81° East 198 228 5,000 -540 Level FlightAware
07:07PM 41.5860 -87.5980 85° East 212 244 4,500 -840 Descending FlightAware
07:07PM 41.6010 -87.5790 43° Northeast 212 244 4,200 -1,140 Descending FlightAware
07:07PM 41.6140 -87.5640 41° Northeast 215 247 3,800 -1,200 Descending FlightAware
07:08PM 41.6220 -87.5620 11° North 213 245 3,700 -1,020 Descending FlightAware
07:08PM 41.6410 -87.5720 339° North 198 228 3,300 -1,200 Descending FlightAware
07:08PM 41.6470 -87.5780 323° Northwest 196 226 3,100 -660 Descending FlightAware
07:08PM 41.6610 -87.5940 320° Northwest 194 223 3,000 -180 Descending FlightAware
07:09PM 41.6770 -87.6110 322° Northwest 196 226 3,000  Level FlightAware
07:09PM 41.6920 -87.6280 320° Northwest 197 227 3,000 -480 Level FlightAware
07:09PM 41.7060 -87.6430 321° Northwest 198 228 2,700 -900 Descending FlightAware
07:10PM 41.7190 -87.6590 317° Northwest 196 226 2,400 -900 Descending FlightAware
07:10PM 41.7300 -87.6720 319° Northwest 202 232 2,200 -780 Descending FlightAware
07:10PM 41.7370 -87.6760 337° Northwest 208 239 2,100 -780 Descending FlightAware
07:10PM 41.7450 -87.6770 355° North 211 243 2,000 -180 Descending FlightAware
07:11PM 41.7670 -87.6780 358° North 211 243 2,000  Level FlightAware
07:11PM 41.7690 -87.6630 80° East 186 214 2,000 -480 Level FlightAware
07:11PM 41.7760 -87.6570 33° Northeast 190 219 1,900 -540 Descending FlightAware
07:11PM 41.7800 -87.6560 11° North 190 219 1,900 -240 Level FlightAware
07:11PM 41.7960 -87.6690 329° Northwest 170 196 1,800 -420 Descending FlightAware
07:12PM 41.8060 -87.6840 312° West 167 192 1,600 -540 Descending FlightAware
07:12PM 41.8140 -87.6970 310° West 148 170 1,500 -300 Descending FlightAware
07:12PM 41.8150 -87.7000 294° West 140 161 1,500 -600 Level FlightAware
07:12PM 41.8160 -87.7050 285° West 135 155 1,400 -660 Descending FlightAware
07:13PM 41.8100 -87.7200 242° Southwest 125 144 1,200 -360 Descending FlightAware
07:13PM 41.7990 -87.7330 221° Southwest 125 144 1,100 -240 Descending FlightAware